sensor_id;sensor_type;location;lat;lon;timestamp;P1;durP1;ratioP1;P2;durP2;ratioP2
6531;SDS011;3299;42.004;24.868;2023-03-03T00:00:10;39.80;;;21.50;;
6531;SDS011;3299;42.004;24.868;2023-03-03T00:02:35;39.50;;;20.70;;
6531;SDS011;3299;42.004;24.868;2023-03-03T00:05:01;40.47;;;19.17;;
6531;SDS011;3299;42.004;24.868;2023-03-03T00:07:26;44.28;;;22.27;;
6531;SDS011;3299;42.004;24.868;2023-03-03T00:09:52;43.25;;;23.10;;
6531;SDS011;3299;42.004;24.868;2023-03-03T00:12:24;41.08;;;22.05;;
6531;SDS011;3299;42.004;24.868;2023-03-03T00:14:52;37.63;;;20.85;;
6531;SDS011;3299;42.004;24.868;2023-03-03T00:17:21;39.50;;;19.50;;
6531;SDS011;3299;42.004;24.868;2023-03-03T00:19:49;37.70;;;19.83;;
6531;SDS011;3299;42.004;24.868;2023-03-03T00:22:20;35.22;;;19.17;;
6531;SDS011;3299;42.004;24.868;2023-03-03T00:24:47;39.10;;;21.70;;
6531;SDS011;3299;42.004;24.868;2023-03-03T00:27:18;37.72;;;18.17;;
6531;SDS011;3299;42.004;24.868;2023-03-03T00:30:02;39.92;;;21.52;;
6531;SDS011;3299;42.004;24.868;2023-03-03T00:32:37;39.65;;;20.38;;
6531;SDS011;3299;42.004;24.868;2023-03-03T00:35:25;44.63;;;20.55;;
6531;SDS011;3299;42.004;24.868;2023-03-03T00:37:57;35.17;;;20.20;;
6531;SDS011;3299;42.004;24.868;2023-03-03T00:40:35;39.80;;;21.15;;
6531;SDS011;3299;42.004;24.868;2023-03-03T00:43:07;35.17;;;20.25;;
6531;SDS011;3299;42.004;24.868;2023-03-03T00:45:56;37.92;;;19.77;;
6531;SDS011;3299;42.004;24.868;2023-03-03T00:51:00;34.15;;;20.02;;
6531;SDS011;3299;42.004;24.868;2023-03-03T00:53:30;36.72;;;19.92;;
6531;SDS011;3299;42.004;24.868;2023-03-03T00:55:55;38.95;;;20.13;;
6531;SDS011;3299;42.004;24.868;2023-03-03T00:58:22;33.28;;;19.65;;
6531;SDS011;3299;42.004;24.868;2023-03-03T01:00:49;39.38;;;20.63;;
6531;SDS011;3299;42.004;24.868;2023-03-03T01:03:18;37.08;;;21.42;;
6531;SDS011;3299;42.004;24.868;2023-03-03T01:05:46;36.15;;;21.20;;
6531;SDS011;3299;42.004;24.868;2023-03-03T01:08:12;39.03;;;19.67;;
6531;SDS011;3299;42.004;24.868;2023-03-03T01:10:39;38.88;;;19.38;;
6531;SDS011;3299;42.004;24.868;2023-03-03T01:13:16;33.95;;;18.02;;
6531;SDS011;3299;42.004;24.868;2023-03-03T01:15:43;39.70;;;20.70;;
6531;SDS011;3299;42.004;24.868;2023-03-03T01:18:09;35.45;;;20.15;;
6531;SDS011;3299;42.004;24.868;2023-03-03T01:20:36;39.28;;;19.55;;
6531;SDS011;3299;42.004;24.868;2023-03-03T01:23:02;31.40;;;18.20;;
6531;SDS011;3299;42.004;24.868;2023-03-03T01:25:27;35.33;;;18.65;;
6531;SDS011;3299;42.004;24.868;2023-03-03T01:27:53;36.83;;;18.58;;
6531;SDS011;3299;42.004;24.868;2023-03-03T01:30:19;38.53;;;19.63;;
6531;SDS011;3299;42.004;24.868;2023-03-03T01:32:44;35.45;;;18.55;;
6531;SDS011;3299;42.004;24.868;2023-03-03T01:35:09;30.35;;;18.27;;
6531;SDS011;3299;42.004;24.868;2023-03-03T01:37:35;36.15;;;18.27;;
6531;SDS011;3299;42.004;24.868;2023-03-03T01:40:01;35.45;;;18.73;;
6531;SDS011;3299;42.004;24.868;2023-03-03T01:42:28;34.13;;;17.98;;
6531;SDS011;3299;42.004;24.868;2023-03-03T01:47:41;35.63;;;19.40;;
6531;SDS011;3299;42.004;24.868;2023-03-03T01:50:13;43.75;;;20.65;;
6531;SDS011;3299;42.004;24.868;2023-03-03T01:52:44;36.25;;;18.65;;
6531;SDS011;3299;42.004;24.868;2023-03-03T01:55:18;36.65;;;20.85;;
6531;SDS011;3299;42.004;24.868;2023-03-03T01:57:49;37.42;;;20.05;;
6531;SDS011;3299;42.004;24.868;2023-03-03T02:00:20;41.78;;;20.50;;
6531;SDS011;3299;42.004;24.868;2023-03-03T02:02:46;35.75;;;19.17;;
6531;SDS011;3299;42.004;24.868;2023-03-03T02:05:12;34.70;;;18.85;;
6531;SDS011;3299;42.004;24.868;2023-03-03T02:07:40;31.10;;;17.88;;
6531;SDS011;3299;42.004;24.868;2023-03-03T02:10:06;33.95;;;16.90;;
6531;SDS011;3299;42.004;24.868;2023-03-03T02:12:40;32.08;;;17.98;;
6531;SDS011;3299;42.004;24.868;2023-03-03T02:15:50;37.92;;;17.92;;
6531;SDS011;3299;42.004;24.868;2023-03-03T02:18:06;35.55;;;17.75;;
6531;SDS011;3299;42.004;24.868;2023-03-03T02:23:37;29.35;;;15.75;;
6531;SDS011;3299;42.004;24.868;2023-03-03T02:26:12;30.35;;;15.88;;
6531;SDS011;3299;42.004;24.868;2023-03-03T02:28:40;30.95;;;15.65;;
6531;SDS011;3299;42.004;24.868;2023-03-03T02:31:11;35.90;;;15.85;;
6531;SDS011;3299;42.004;24.868;2023-03-03T02:33:43;24.52;;;14.55;;
6531;SDS011;3299;42.004;24.868;2023-03-03T02:36:14;26.63;;;15.32;;
6531;SDS011;3299;42.004;24.868;2023-03-03T02:38:43;28.60;;;13.93;;
6531;SDS011;3299;42.004;24.868;2023-03-03T02:44:04;27.80;;;14.73;;
6531;SDS011;3299;42.004;24.868;2023-03-03T02:46:37;32.28;;;16.35;;
6531;SDS011;3299;42.004;24.868;2023-03-03T02:49:05;32.15;;;16.55;;
6531;SDS011;3299;42.004;24.868;2023-03-03T02:51:33;29.80;;;16.60;;
6531;SDS011;3299;42.004;24.868;2023-03-03T02:53:59;28.42;;;15.48;;
6531;SDS011;3299;42.004;24.868;2023-03-03T02:56:28;31.35;;;15.82;;
6531;SDS011;3299;42.004;24.868;2023-03-03T02:58:53;35.10;;;16.23;;
6531;SDS011;3299;42.004;24.868;2023-03-03T03:01:19;28.08;;;15.50;;
6531;SDS011;3299;42.004;24.868;2023-03-03T03:03:45;34.97;;;16.52;;
6531;SDS011;3299;42.004;24.868;2023-03-03T03:06:11;30.48;;;15.35;;
6531;SDS011;3299;42.004;24.868;2023-03-03T03:08:36;28.23;;;13.73;;
6531;SDS011;3299;42.004;24.868;2023-03-03T03:11:02;26.75;;;14.20;;
6531;SDS011;3299;42.004;24.868;2023-03-03T03:13:29;33.20;;;16.48;;
6531;SDS011;3299;42.004;24.868;2023-03-03T03:15:56;27.27;;;15.40;;
6531;SDS011;3299;42.004;24.868;2023-03-03T03:18:21;27.60;;;13.23;;
6531;SDS011;3299;42.004;24.868;2023-03-03T03:20:47;31.23;;;14.10;;
6531;SDS011;3299;42.004;24.868;2023-03-03T03:23:12;25.45;;;13.70;;
6531;SDS011;3299;42.004;24.868;2023-03-03T03:25:38;34.20;;;14.82;;
6531;SDS011;3299;42.004;24.868;2023-03-03T03:28:09;24.70;;;14.50;;
6531;SDS011;3299;42.004;24.868;2023-03-03T03:30:36;25.15;;;14.38;;
6531;SDS011;3299;42.004;24.868;2023-03-03T03:33:02;26.50;;;13.55;;
6531;SDS011;3299;42.004;24.868;2023-03-03T03:35:27;22.48;;;12.48;;
6531;SDS011;3299;42.004;24.868;2023-03-03T03:37:52;20.70;;;13.27;;
6531;SDS011;3299;42.004;24.868;2023-03-03T03:40:18;23.45;;;13.50;;
6531;SDS011;3299;42.004;24.868;2023-03-03T03:42:43;27.00;;;14.60;;
6531;SDS011;3299;42.004;24.868;2023-03-03T03:45:09;24.17;;;13.15;;
6531;SDS011;3299;42.004;24.868;2023-03-03T03:47:39;21.40;;;13.85;;
6531;SDS011;3299;42.004;24.868;2023-03-03T03:50:05;25.98;;;14.02;;
6531;SDS011;3299;42.004;24.868;2023-03-03T03:52:31;31.00;;;14.77;;
6531;SDS011;3299;42.004;24.868;2023-03-03T03:54:56;28.98;;;12.90;;
6531;SDS011;3299;42.004;24.868;2023-03-03T03:57:22;27.25;;;14.15;;
6531;SDS011;3299;42.004;24.868;2023-03-03T03:59:48;30.10;;;13.65;;
6531;SDS011;3299;42.004;24.868;2023-03-03T04:02:14;30.00;;;13.30;;
6531;SDS011;3299;42.004;24.868;2023-03-03T04:04:39;27.00;;;11.73;;
6531;SDS011;3299;42.004;24.868;2023-03-03T04:07:05;29.20;;;14.02;;
6531;SDS011;3299;42.004;24.868;2023-03-03T04:09:30;19.67;;;12.57;;
6531;SDS011;3299;42.004;24.868;2023-03-03T04:11:56;23.98;;;12.63;;
6531;SDS011;3299;42.004;24.868;2023-03-03T04:14:21;23.67;;;11.82;;
6531;SDS011;3299;42.004;24.868;2023-03-03T04:16:46;27.67;;;12.15;;
6531;SDS011;3299;42.004;24.868;2023-03-03T04:19:12;26.40;;;11.82;;
6531;SDS011;3299;42.004;24.868;2023-03-03T04:21:37;23.38;;;12.18;;
6531;SDS011;3299;42.004;24.868;2023-03-03T04:24:03;23.50;;;13.23;;
6531;SDS011;3299;42.004;24.868;2023-03-03T04:26:29;23.48;;;12.65;;
6531;SDS011;3299;42.004;24.868;2023-03-03T04:28:55;20.90;;;12.52;;
6531;SDS011;3299;42.004;24.868;2023-03-03T04:31:21;22.02;;;12.27;;
6531;SDS011;3299;42.004;24.868;2023-03-03T04:33:49;25.27;;;12.35;;
6531;SDS011;3299;42.004;24.868;2023-03-03T04:36:15;22.55;;;11.95;;
6531;SDS011;3299;42.004;24.868;2023-03-03T04:38:40;22.27;;;11.73;;
6531;SDS011;3299;42.004;24.868;2023-03-03T04:41:06;24.63;;;11.95;;
6531;SDS011;3299;42.004;24.868;2023-03-03T04:43:31;19.52;;;12.45;;
6531;SDS011;3299;42.004;24.868;2023-03-03T04:45:57;19.88;;;12.05;;
6531;SDS011;3299;42.004;24.868;2023-03-03T04:48:22;19.30;;;11.32;;
6531;SDS011;3299;42.004;24.868;2023-03-03T04:50:47;16.73;;;10.13;;
6531;SDS011;3299;42.004;24.868;2023-03-03T04:53:13;17.80;;;10.80;;
6531;SDS011;3299;42.004;24.868;2023-03-03T04:55:38;18.98;;;10.30;;
6531;SDS011;3299;42.004;24.868;2023-03-03T04:58:04;21.02;;;10.27;;
6531;SDS011;3299;42.004;24.868;2023-03-03T05:00:30;17.98;;;10.40;;
6531;SDS011;3299;42.004;24.868;2023-03-03T05:02:55;21.17;;;10.27;;
6531;SDS011;3299;42.004;24.868;2023-03-03T05:05:23;15.68;;;10.48;;
6531;SDS011;3299;42.004;24.868;2023-03-03T05:07:48;20.58;;;11.15;;
6531;SDS011;3299;42.004;24.868;2023-03-03T05:10:16;17.55;;;10.85;;
6531;SDS011;3299;42.004;24.868;2023-03-03T05:12:42;21.50;;;11.50;;
6531;SDS011;3299;42.004;24.868;2023-03-03T05:15:08;19.15;;;10.32;;
6531;SDS011;3299;42.004;24.868;2023-03-03T05:17:34;19.88;;;11.10;;
6531;SDS011;3299;42.004;24.868;2023-03-03T05:20:00;17.48;;;11.02;;
6531;SDS011;3299;42.004;24.868;2023-03-03T05:22:25;20.60;;;11.35;;
6531;SDS011;3299;42.004;24.868;2023-03-03T05:24:51;25.58;;;13.52;;
6531;SDS011;3299;42.004;24.868;2023-03-03T05:27:17;22.70;;;13.98;;
6531;SDS011;3299;42.004;24.868;2023-03-03T05:29:43;23.13;;;13.23;;
6531;SDS011;3299;42.004;24.868;2023-03-03T05:32:08;24.65;;;13.70;;
6531;SDS011;3299;42.004;24.868;2023-03-03T05:34:34;22.02;;;12.45;;
6531;SDS011;3299;42.004;24.868;2023-03-03T05:36:59;28.15;;;13.82;;
6531;SDS011;3299;42.004;24.868;2023-03-03T05:39:25;20.42;;;13.45;;
6531;SDS011;3299;42.004;24.868;2023-03-03T05:41:50;26.60;;;14.45;;
6531;SDS011;3299;42.004;24.868;2023-03-03T05:44:15;24.60;;;13.35;;
6531;SDS011;3299;42.004;24.868;2023-03-03T05:46:41;22.92;;;13.07;;
6531;SDS011;3299;42.004;24.868;2023-03-03T05:49:07;25.17;;;14.60;;
6531;SDS011;3299;42.004;24.868;2023-03-03T05:51:32;26.58;;;13.60;;
6531;SDS011;3299;42.004;24.868;2023-03-03T05:53:58;25.58;;;14.32;;
6531;SDS011;3299;42.004;24.868;2023-03-03T05:56:23;30.23;;;14.52;;
6531;SDS011;3299;42.004;24.868;2023-03-03T05:58:49;22.30;;;14.40;;
6531;SDS011;3299;42.004;24.868;2023-03-03T06:01:14;31.60;;;14.82;;
6531;SDS011;3299;42.004;24.868;2023-03-03T06:03:39;23.55;;;14.48;;
6531;SDS011;3299;42.004;24.868;2023-03-03T06:06:07;27.85;;;15.63;;
6531;SDS011;3299;42.004;24.868;2023-03-03T06:08:33;26.17;;;15.15;;
6531;SDS011;3299;42.004;24.868;2023-03-03T06:10:59;34.95;;;18.50;;
6531;SDS011;3299;42.004;24.868;2023-03-03T06:13:24;37.53;;;19.95;;
6531;SDS011;3299;42.004;24.868;2023-03-03T06:15:50;36.30;;;18.55;;
6531;SDS011;3299;42.004;24.868;2023-03-03T06:18:15;29.92;;;17.35;;
6531;SDS011;3299;42.004;24.868;2023-03-03T06:20:41;30.63;;;17.98;;
6531;SDS011;3299;42.004;24.868;2023-03-03T06:23:06;29.30;;;18.13;;
6531;SDS011;3299;42.004;24.868;2023-03-03T06:25:32;35.05;;;18.48;;
6531;SDS011;3299;42.004;24.868;2023-03-03T06:27:59;33.00;;;19.65;;
6531;SDS011;3299;42.004;24.868;2023-03-03T06:30:25;29.27;;;16.50;;
6531;SDS011;3299;42.004;24.868;2023-03-03T06:32:52;28.33;;;17.27;;
6531;SDS011;3299;42.004;24.868;2023-03-03T06:35:18;28.52;;;17.50;;
6531;SDS011;3299;42.004;24.868;2023-03-03T06:37:43;40.13;;;23.42;;
6531;SDS011;3299;42.004;24.868;2023-03-03T06:40:09;49.65;;;28.35;;
6531;SDS011;3299;42.004;24.868;2023-03-03T06:42:35;47.70;;;28.38;;
6531;SDS011;3299;42.004;24.868;2023-03-03T06:45:00;47.50;;;28.90;;
6531;SDS011;3299;42.004;24.868;2023-03-03T06:47:25;54.45;;;31.50;;
6531;SDS011;3299;42.004;24.868;2023-03-03T06:49:51;45.60;;;27.05;;
6531;SDS011;3299;42.004;24.868;2023-03-03T06:52:18;47.45;;;28.83;;
6531;SDS011;3299;42.004;24.868;2023-03-03T06:54:46;41.38;;;25.13;;
6531;SDS011;3299;42.004;24.868;2023-03-03T06:59:45;51.60;;;26.95;;
6531;SDS011;3299;42.004;24.868;2023-03-03T07:02:15;44.70;;;27.60;;
6531;SDS011;3299;42.004;24.868;2023-03-03T07:04:41;39.67;;;22.48;;
6531;SDS011;3299;42.004;24.868;2023-03-03T07:07:12;38.97;;;23.33;;
6531;SDS011;3299;42.004;24.868;2023-03-03T07:09:53;48.53;;;27.80;;
6531;SDS011;3299;42.004;24.868;2023-03-03T07:12:28;42.65;;;23.33;;
6531;SDS011;3299;42.004;24.868;2023-03-03T07:15:01;36.67;;;21.80;;
6531;SDS011;3299;42.004;24.868;2023-03-03T07:17:40;34.08;;;23.38;;
6531;SDS011;3299;42.004;24.868;2023-03-03T07:25:47;36.67;;;22.15;;
6531;SDS011;3299;42.004;24.868;2023-03-03T07:28:25;36.38;;;23.23;;
6531;SDS011;3299;42.004;24.868;2023-03-03T07:30:57;35.53;;;21.73;;
6531;SDS011;3299;42.004;24.868;2023-03-03T07:33:27;36.72;;;21.38;;
6531;SDS011;3299;42.004;24.868;2023-03-03T07:35:58;39.15;;;22.60;;
6531;SDS011;3299;42.004;24.868;2023-03-03T07:40:59;37.90;;;23.05;;
6531;SDS011;3299;42.004;24.868;2023-03-03T07:48:36;32.00;;;20.42;;
6531;SDS011;3299;42.004;24.868;2023-03-03T07:51:12;31.40;;;19.80;;
6531;SDS011;3299;42.004;24.868;2023-03-03T07:53:46;25.77;;;16.48;;
6531;SDS011;3299;42.004;24.868;2023-03-03T07:56:33;30.13;;;18.27;;
6531;SDS011;3299;42.004;24.868;2023-03-03T07:58:59;26.77;;;16.33;;
6531;SDS011;3299;42.004;24.868;2023-03-03T08:04:16;30.92;;;18.67;;
6531;SDS011;3299;42.004;24.868;2023-03-03T08:14:36;35.08;;;21.25;;
6531;SDS011;3299;42.004;24.868;2023-03-03T08:17:13;34.58;;;20.70;;
6531;SDS011;3299;42.004;24.868;2023-03-03T08:19:55;35.70;;;21.08;;
6531;SDS011;3299;42.004;24.868;2023-03-03T08:24:54;34.00;;;20.15;;
6531;SDS011;3299;42.004;24.868;2023-03-03T08:27:19;31.73;;;19.33;;
6531;SDS011;3299;42.004;24.868;2023-03-03T08:29:47;33.20;;;19.02;;
6531;SDS011;3299;42.004;24.868;2023-03-03T08:32:14;31.10;;;19.20;;
6531;SDS011;3299;42.004;24.868;2023-03-03T08:34:39;32.05;;;19.10;;
6531;SDS011;3299;42.004;24.868;2023-03-03T08:37:05;31.25;;;20.05;;
6531;SDS011;3299;42.004;24.868;2023-03-03T08:39:30;35.08;;;21.85;;
6531;SDS011;3299;42.004;24.868;2023-03-03T08:41:56;33.03;;;21.27;;
6531;SDS011;3299;42.004;24.868;2023-03-03T08:44:21;36.72;;;22.25;;
6531;SDS011;3299;42.004;24.868;2023-03-03T08:46:47;36.78;;;22.13;;
6531;SDS011;3299;42.004;24.868;2023-03-03T08:49:12;59.30;;;38.17;;
6531;SDS011;3299;42.004;24.868;2023-03-03T08:51:38;35.90;;;23.33;;
6531;SDS011;3299;42.004;24.868;2023-03-03T08:54:03;40.88;;;24.98;;
6531;SDS011;3299;42.004;24.868;2023-03-03T08:56:29;34.28;;;20.73;;
6531;SDS011;3299;42.004;24.868;2023-03-03T08:58:54;32.95;;;21.67;;
6531;SDS011;3299;42.004;24.868;2023-03-03T09:01:19;35.53;;;22.40;;
6531;SDS011;3299;42.004;24.868;2023-03-03T09:03:45;35.88;;;22.33;;
6531;SDS011;3299;42.004;24.868;2023-03-03T09:06:10;31.10;;;21.58;;
6531;SDS011;3299;42.004;24.868;2023-03-03T09:08:36;30.10;;;20.80;;
6531;SDS011;3299;42.004;24.868;2023-03-03T09:11:02;35.42;;;21.98;;
6531;SDS011;3299;42.004;24.868;2023-03-03T09:13:34;44.72;;;25.67;;
6531;SDS011;3299;42.004;24.868;2023-03-03T09:15:59;39.00;;;26.55;;
6531;SDS011;3299;42.004;24.868;2023-03-03T09:18:28;35.67;;;25.27;;
6531;SDS011;3299;42.004;24.868;2023-03-03T09:20:59;30.15;;;21.75;;
6531;SDS011;3299;42.004;24.868;2023-03-03T09:29:26;22.27;;;14.63;;
6531;SDS011;3299;42.004;24.868;2023-03-03T09:31:56;22.23;;;14.88;;
6531;SDS011;3299;42.004;24.868;2023-03-03T09:34:37;24.42;;;16.73;;
6531;SDS011;3299;42.004;24.868;2023-03-03T09:37:26;34.55;;;19.98;;
6531;SDS011;3299;42.004;24.868;2023-03-03T09:39:56;36.53;;;26.50;;
6531;SDS011;3299;42.004;24.868;2023-03-03T09:50:32;50.58;;;32.65;;
6531;SDS011;3299;42.004;24.868;2023-03-03T10:06:32;20.40;;;13.77;;
6531;SDS011;3299;42.004;24.868;2023-03-03T10:12:02;24.20;;;14.50;;
6531;SDS011;3299;42.004;24.868;2023-03-03T10:17:49;27.33;;;17.20;;
6531;SDS011;3299;42.004;24.868;2023-03-03T10:30:45;25.67;;;15.38;;
6531;SDS011;3299;42.004;24.868;2023-03-03T10:41:31;31.42;;;17.33;;
6531;SDS011;3299;42.004;24.868;2023-03-03T10:49:54;27.80;;;16.98;;
6531;SDS011;3299;42.004;24.868;2023-03-03T10:52:48;21.90;;;15.60;;
6531;SDS011;3299;42.004;24.868;2023-03-03T11:00:28;25.45;;;17.13;;
6531;SDS011;3299;42.004;24.868;2023-03-03T11:09:35;25.30;;;17.48;;
6531;SDS011;3299;42.004;24.868;2023-03-03T11:20:29;37.15;;;22.85;;
6531;SDS011;3299;42.004;24.868;2023-03-03T11:31:45;29.15;;;17.35;;
6531;SDS011;3299;42.004;24.868;2023-03-03T11:37:03;30.50;;;17.35;;
6531;SDS011;3299;42.004;24.868;2023-03-03T11:39:36;26.83;;;16.83;;
6531;SDS011;3299;42.004;24.868;2023-03-03T11:42:24;26.98;;;15.27;;
6531;SDS011;3299;42.004;24.868;2023-03-03T11:45:17;24.77;;;14.93;;
6531;SDS011;3299;42.004;24.868;2023-03-03T11:47:47;23.83;;;13.75;;
6531;SDS011;3299;42.004;24.868;2023-03-03T11:50:25;23.38;;;14.02;;
6531;SDS011;3299;42.004;24.868;2023-03-03T11:53:06;25.08;;;14.52;;
6531;SDS011;3299;42.004;24.868;2023-03-03T11:55:46;22.98;;;15.43;;
6531;SDS011;3299;42.004;24.868;2023-03-03T11:58:21;27.33;;;16.55;;
6531;SDS011;3299;42.004;24.868;2023-03-03T12:00:53;26.00;;;16.63;;
6531;SDS011;3299;42.004;24.868;2023-03-03T12:11:47;28.13;;;18.27;;
6531;SDS011;3299;42.004;24.868;2023-03-03T12:14:42;29.20;;;18.42;;
6531;SDS011;3299;42.004;24.868;2023-03-03T12:17:12;27.45;;;18.80;;
6531;SDS011;3299;42.004;24.868;2023-03-03T12:22:30;29.33;;;17.58;;
6531;SDS011;3299;42.004;24.868;2023-03-03T12:27:33;26.13;;;17.00;;
6531;SDS011;3299;42.004;24.868;2023-03-03T12:33:10;27.98;;;17.10;;
6531;SDS011;3299;42.004;24.868;2023-03-03T12:44:29;30.10;;;18.38;;
6531;SDS011;3299;42.004;24.868;2023-03-03T13:00:39;28.95;;;17.23;;
6531;SDS011;3299;42.004;24.868;2023-03-03T13:14:21;26.90;;;17.13;;
6531;SDS011;3299;42.004;24.868;2023-03-03T13:17:04;34.53;;;17.45;;
6531;SDS011;3299;42.004;24.868;2023-03-03T13:19:51;32.85;;;20.73;;
6531;SDS011;3299;42.004;24.868;2023-03-03T13:27:49;22.05;;;14.48;;
6531;SDS011;3299;42.004;24.868;2023-03-03T13:30:24;29.23;;;18.30;;
6531;SDS011;3299;42.004;24.868;2023-03-03T13:35:37;26.85;;;18.75;;
6531;SDS011;3299;42.004;24.868;2023-03-03T13:38:09;31.73;;;18.50;;
6531;SDS011;3299;42.004;24.868;2023-03-03T13:40:40;25.27;;;17.90;;
6531;SDS011;3299;42.004;24.868;2023-03-03T13:46:07;28.02;;;16.88;;
6531;SDS011;3299;42.004;24.868;2023-03-03T13:48:49;29.55;;;17.67;;
6531;SDS011;3299;42.004;24.868;2023-03-03T13:54:11;28.27;;;16.60;;
6531;SDS011;3299;42.004;24.868;2023-03-03T14:06:54;28.13;;;18.08;;
6531;SDS011;3299;42.004;24.868;2023-03-03T14:09:36;29.55;;;17.58;;
6531;SDS011;3299;42.004;24.868;2023-03-03T14:12:12;27.77;;;18.02;;
6531;SDS011;3299;42.004;24.868;2023-03-03T14:14:51;29.80;;;20.08;;
6531;SDS011;3299;42.004;24.868;2023-03-03T14:17:37;27.90;;;16.90;;
6531;SDS011;3299;42.004;24.868;2023-03-03T14:20:29;33.65;;;20.90;;
6531;SDS011;3299;42.004;24.868;2023-03-03T14:23:00;26.30;;;17.75;;
6531;SDS011;3299;42.004;24.868;2023-03-03T14:25:49;30.85;;;19.75;;
6531;SDS011;3299;42.004;24.868;2023-03-03T14:28:19;32.00;;;19.52;;
6531;SDS011;3299;42.004;24.868;2023-03-03T14:30:47;28.40;;;18.02;;
6531;SDS011;3299;42.004;24.868;2023-03-03T14:35:42;27.90;;;17.55;;
6531;SDS011;3299;42.004;24.868;2023-03-03T14:40:38;49.63;;;28.80;;
6531;SDS011;3299;42.004;24.868;2023-03-03T14:45:47;29.67;;;16.92;;
6531;SDS011;3299;42.004;24.868;2023-03-03T14:50:39;26.83;;;15.18;;
6531;SDS011;3299;42.004;24.868;2023-03-03T14:53:14;21.40;;;14.40;;
6531;SDS011;3299;42.004;24.868;2023-03-03T14:55:46;21.80;;;13.88;;
6531;SDS011;3299;42.004;24.868;2023-03-03T14:58:24;20.17;;;14.38;;
6531;SDS011;3299;42.004;24.868;2023-03-03T15:04:03;20.45;;;14.32;;
6531;SDS011;3299;42.004;24.868;2023-03-03T15:09:24;27.50;;;17.17;;
6531;SDS011;3299;42.004;24.868;2023-03-03T15:12:23;29.80;;;18.85;;
6531;SDS011;3299;42.004;24.868;2023-03-03T15:33:57;24.75;;;16.60;;
6531;SDS011;3299;42.004;24.868;2023-03-03T15:42:36;27.83;;;16.98;;
6531;SDS011;3299;42.004;24.868;2023-03-03T15:56:12;35.70;;;23.67;;
6531;SDS011;3299;42.004;24.868;2023-03-03T16:04:30;34.33;;;21.02;;
6531;SDS011;3299;42.004;24.868;2023-03-03T16:09:58;30.85;;;18.50;;
6531;SDS011;3299;42.004;24.868;2023-03-03T16:15:26;30.90;;;18.13;;
6531;SDS011;3299;42.004;24.868;2023-03-03T16:26:05;33.13;;;20.20;;
6531;SDS011;3299;42.004;24.868;2023-03-03T16:31:17;33.00;;;18.15;;
6531;SDS011;3299;42.004;24.868;2023-03-03T16:36:24;23.02;;;16.33;;
6531;SDS011;3299;42.004;24.868;2023-03-03T16:41:32;30.52;;;16.67;;
6531;SDS011;3299;42.004;24.868;2023-03-03T16:46:44;25.70;;;16.80;;
6531;SDS011;3299;42.004;24.868;2023-03-03T17:11:18;26.67;;;16.58;;
6531;SDS011;3299;42.004;24.868;2023-03-03T17:33:38;35.28;;;20.65;;
6531;SDS011;3299;42.004;24.868;2023-03-03T17:36:02;33.28;;;21.42;;
6531;SDS011;3299;42.004;24.868;2023-03-03T17:38:54;35.75;;;21.02;;
6531;SDS011;3299;42.004;24.868;2023-03-03T17:41:23;39.00;;;22.17;;
6531;SDS011;3299;42.004;24.868;2023-03-03T17:46:48;36.10;;;22.60;;
6531;SDS011;3299;42.004;24.868;2023-03-03T18:00:42;48.40;;;27.05;;
6531;SDS011;3299;42.004;24.868;2023-03-03T18:03:36;46.05;;;27.10;;
6531;SDS011;3299;42.004;24.868;2023-03-03T18:06:34;47.28;;;27.80;;
6531;SDS011;3299;42.004;24.868;2023-03-03T18:09:25;42.75;;;26.33;;
6531;SDS011;3299;42.004;24.868;2023-03-03T18:21:06;30.13;;;18.38;;
6531;SDS011;3299;42.004;24.868;2023-03-03T18:23:44;31.00;;;18.35;;
6531;SDS011;3299;42.004;24.868;2023-03-03T18:34:38;37.67;;;17.08;;
6531;SDS011;3299;42.004;24.868;2023-03-03T18:42:46;32.83;;;19.38;;
6531;SDS011;3299;42.004;24.868;2023-03-03T18:50:36;30.52;;;17.80;;
6531;SDS011;3299;42.004;24.868;2023-03-03T18:53:06;29.88;;;17.90;;
6531;SDS011;3299;42.004;24.868;2023-03-03T18:55:41;24.25;;;16.45;;
6531;SDS011;3299;42.004;24.868;2023-03-03T19:01:11;28.80;;;18.23;;
6531;SDS011;3299;42.004;24.868;2023-03-03T19:04:17;28.42;;;16.75;;
6531;SDS011;3299;42.004;24.868;2023-03-03T19:09:17;28.52;;;17.35;;
6531;SDS011;3299;42.004;24.868;2023-03-03T19:12:06;28.25;;;17.65;;
6531;SDS011;3299;42.004;24.868;2023-03-03T19:14:36;25.98;;;16.33;;
6531;SDS011;3299;42.004;24.868;2023-03-03T19:22:44;27.30;;;16.65;;
6531;SDS011;3299;42.004;24.868;2023-03-03T19:25:16;25.90;;;16.05;;
6531;SDS011;3299;42.004;24.868;2023-03-03T19:30:41;22.90;;;15.45;;
6531;SDS011;3299;42.004;24.868;2023-03-03T19:49:11;17.77;;;12.07;;
6531;SDS011;3299;42.004;24.868;2023-03-03T19:58:08;23.75;;;15.93;;
6531;SDS011;3299;42.004;24.868;2023-03-03T20:00:48;23.33;;;14.80;;
6531;SDS011;3299;42.004;24.868;2023-03-03T20:23:06;17.83;;;12.27;;
6531;SDS011;3299;42.004;24.868;2023-03-03T20:25:47;19.17;;;13.57;;
6531;SDS011;3299;42.004;24.868;2023-03-03T20:45:42;17.25;;;11.57;;
6531;SDS011;3299;42.004;24.868;2023-03-03T20:53:39;12.57;;;9.95;;
6531;SDS011;3299;42.004;24.868;2023-03-03T20:59:20;12.43;;;9.52;;
6531;SDS011;3299;42.004;24.868;2023-03-03T21:04:36;11.05;;;8.75;;
6531;SDS011;3299;42.004;24.868;2023-03-03T21:07:02;8.70;;;7.80;;
6531;SDS011;3299;42.004;24.868;2023-03-03T21:12:09;9.20;;;7.95;;
6531;SDS011;3299;42.004;24.868;2023-03-03T21:15:02;9.07;;;7.75;;
6531;SDS011;3299;42.004;24.868;2023-03-03T21:17:31;10.15;;;8.13;;
6531;SDS011;3299;42.004;24.868;2023-03-03T21:22:49;12.85;;;9.63;;
6531;SDS011;3299;42.004;24.868;2023-03-03T21:31:05;9.90;;;7.55;;
6531;SDS011;3299;42.004;24.868;2023-03-03T21:41:54;10.13;;;7.60;;
6531;SDS011;3299;42.004;24.868;2023-03-03T21:44:47;9.25;;;7.38;;
6531;SDS011;3299;42.004;24.868;2023-03-03T21:47:25;10.23;;;8.15;;
6531;SDS011;3299;42.004;24.868;2023-03-03T21:49:52;8.98;;;8.02;;
6531;SDS011;3299;42.004;24.868;2023-03-03T21:52:18;9.13;;;8.20;;
6531;SDS011;3299;42.004;24.868;2023-03-03T21:54:45;8.68;;;7.40;;
6531;SDS011;3299;42.004;24.868;2023-03-03T21:57:12;9.98;;;8.30;;
6531;SDS011;3299;42.004;24.868;2023-03-03T21:59:38;9.90;;;8.27;;
6531;SDS011;3299;42.004;24.868;2023-03-03T22:02:04;8.15;;;7.40;;
6531;SDS011;3299;42.004;24.868;2023-03-03T22:04:30;9.27;;;8.20;;
6531;SDS011;3299;42.004;24.868;2023-03-03T22:06:55;10.32;;;8.95;;
6531;SDS011;3299;42.004;24.868;2023-03-03T22:09:21;11.23;;;8.35;;
6531;SDS011;3299;42.004;24.868;2023-03-03T22:11:47;10.02;;;8.50;;
6531;SDS011;3299;42.004;24.868;2023-03-03T22:14:12;10.82;;;7.43;;
6531;SDS011;3299;42.004;24.868;2023-03-03T22:16:38;8.93;;;7.65;;
6531;SDS011;3299;42.004;24.868;2023-03-03T22:19:04;7.60;;;6.82;;
6531;SDS011;3299;42.004;24.868;2023-03-03T22:21:30;11.30;;;8.45;;
6531;SDS011;3299;42.004;24.868;2023-03-03T22:23:56;10.65;;;8.80;;
6531;SDS011;3299;42.004;24.868;2023-03-03T22:26:25;12.68;;;8.55;;
6531;SDS011;3299;42.004;24.868;2023-03-03T22:28:50;13.05;;;9.50;;
6531;SDS011;3299;42.004;24.868;2023-03-03T22:31:16;16.13;;;9.07;;
6531;SDS011;3299;42.004;24.868;2023-03-03T22:33:42;14.02;;;10.27;;
6531;SDS011;3299;42.004;24.868;2023-03-03T22:36:08;13.55;;;10.25;;
6531;SDS011;3299;42.004;24.868;2023-03-03T22:38:34;13.00;;;9.65;;
6531;SDS011;3299;42.004;24.868;2023-03-03T22:40:59;13.27;;;9.38;;
6531;SDS011;3299;42.004;24.868;2023-03-03T22:43:25;10.57;;;8.45;;
6531;SDS011;3299;42.004;24.868;2023-03-03T22:45:53;11.48;;;8.77;;
6531;SDS011;3299;42.004;24.868;2023-03-03T22:48:19;10.25;;;8.88;;